Time;durP1;ratioP1;P1;durP2;ratioP2;P2;SDS_P1;SDS_P2;PMS_P1;PMS_P2;Temp;Humidity;BMP_temperature;BMP_pressure;BME280_temperature;BME280_humidity;BME280_pressure;Samples;Min_cycle;Max_cycle;Signal;HPM_P1;HPM_P2
2023/09/03 00:01:11;;;;;;;;;1.00;1.00;;;;;22.98;66.45;101970.38;5094656;27;66236;-49
2023/09/03 00:03:37;;;;;;;;;2.50;2.50;;;;;22.98;66.66;101976.66;5098171;27;46861;-45
2023/09/03 00:06:02;;;;;;;;;3.75;2.50;;;;;22.96;66.59;101975.94;5065186;27;45567;-43
2023/09/03 00:08:28;;;;;;;;;1.25;1.25;;;;;22.91;67.62;101976.31;5077479;28;49844;-45
2023/09/03 00:10:54;;;;;;;;;1.00;1.00;;;;;22.86;67.21;101970.41;5087992;27;69653;-46
2023/09/03 00:13:20;;;;;;;;;4.00;2.00;;;;;22.84;67.36;101977.84;5075445;27;47013;-46
2023/09/03 00:15:46;;;;;;;;;2.00;2.00;;;;;22.82;67.24;101978.94;5078448;27;45364;-46
2023/09/03 00:18:12;;;;;;;;;2.25;2.00;;;;;22.79;67.41;101980.06;5076875;27;66342;-45
2023/09/03 00:20:38;;;;;;;;;2.25;2.25;;;;;22.76;67.26;101977.59;5077811;27;45445;-44
2023/09/03 00:23:04;;;;;;;;;2.00;2.00;;;;;22.73;68.19;101980.56;5082475;27;45782;-48
2023/09/03 00:25:36;;;;;;;;;2.25;2.25;;;;;22.71;67.80;101977.13;5081025;27;45447;-47
2023/09/03 00:28:05;;;;;;;;;2.75;2.75;;;;;22.70;68.14;101986.25;5083234;27;45384;-46
2023/09/03 00:30:31;;;;;;;;;3.25;1.75;;;;;22.68;68.17;101989.06;5084310;27;45505;-45
2023/09/03 00:32:56;;;;;;;;;3.50;2.00;;;;;22.67;68.33;101991.91;5097854;27;58546;-44
2023/09/03 00:35:21;;;;;;;;;2.25;2.25;;;;;22.67;68.07;102000.06;5090574;27;67053;-44
2023/09/03 00:37:47;;;;;;;;;2.00;2.00;;;;;22.67;68.17;102008.19;5085963;27;64147;-44
2023/09/03 00:40:12;;;;;;;;;3.75;2.25;;;;;22.62;68.54;102001.31;5077214;28;64702;-46
2023/09/03 00:42:37;;;;;;;;;2.50;2.50;;;;;22.62;68.17;102000.47;5081003;27;45431;-47
2023/09/03 00:45:03;;;;;;;;;4.00;3.00;;;;;22.61;68.25;102001.44;5078497;27;45403;-44
2023/09/03 00:47:28;;;;;;;;;1.25;1.25;;;;;22.60;68.38;102002.41;5085575;27;45439;-46
2023/09/03 00:49:54;;;;;;;;;3.00;3.00;;;;;22.59;68.60;102006.13;5079080;27;66970;-47
2023/09/03 00:52:20;;;;;;;;;1.25;1.25;;;;;22.57;68.42;102008.94;5088107;27;73854;-45
2023/09/03 00:54:45;;;;;;;;;2.00;2.00;;;;;22.55;68.63;102007.34;5059641;28;45760;-44
2023/09/03 00:57:11;;;;;;;;;2.75;2.50;;;;;22.53;68.98;102006.59;5086383;27;67396;-46
2023/09/03 00:59:37;;;;;;;;;3.25;3.00;;;;;22.52;68.97;102004.91;5081595;27;45427;-44
2023/09/03 01:02:03;;;;;;;;;4.00;3.00;;;;;22.50;68.41;102002.28;5086346;27;63767;-44
2023/09/03 01:04:28;;;;;;;;;2.00;2.00;;;;;22.49;68.82;101999.72;5064259;27;71033;-48
2023/09/03 01:06:54;;;;;;;;;2.00;2.00;;;;;22.47;69.18;102005.28;5087139;27;45534;-44
2023/09/03 01:09:19;;;;;;;;;2.00;2.00;;;;;22.46;69.00;102007.13;5059319;28;45492;-46
2023/09/03 01:12:17;;;;;;;;;1.75;1.75;;;;;22.46;69.26;102007.13;5077146;27;68438;-46
2023/09/03 01:14:55;;;;;;;;;2.00;2.00;;;;;22.46;68.99;101996.28;5072346;27;45625;-45
2023/09/03 01:17:31;;;;;;;;;2.00;2.00;;;;;22.44;68.91;101995.53;5060593;27;45389;-44
2023/09/03 01:20:05;;;;;;;;;2.00;2.00;;;;;22.44;69.24;101990.13;5060839;28;45671;-44
2023/09/03 01:23:08;;;;;;;;;2.25;2.25;;;;;22.42;69.04;101975.84;5063145;28;46999;-44
2023/09/03 01:26:05;;;;;;;;;3.00;1.25;;;;;22.40;69.24;101976.97;5080490;27;45450;-44
2023/09/03 01:28:32;;;;;;;;;2.50;2.50;;;;;22.37;69.53;101975.38;5100243;27;45401;-47
2023/09/03 01:31:03;;;;;;;;;1.50;1.50;;;;;22.36;69.62;101972.75;5080340;27;45555;-48
2023/09/03 01:33:30;;;;;;;;;2.00;2.00;;;;;22.35;70.00;101965.59;5086273;27;45665;-45
2023/09/03 01:35:57;;;;;;;;;4.75;3.00;;;;;22.34;69.65;101966.59;5062139;27;45411;-44
2023/09/03 01:38:23;;;;;;;;;2.00;2.00;;;;;22.34;69.41;101963.88;5093769;27;45615;-45
2023/09/03 01:40:49;;;;;;;;;2.00;2.00;;;;;22.33;69.59;101959.44;5081019;27;45351;-45
2023/09/03 01:43:15;;;;;;;;;2.00;2.00;;;;;22.31;69.80;101955.00;5088224;27;46333;-46
2023/09/03 01:45:49;;;;;;;;;2.25;2.25;;;;;22.30;70.48;101958.69;5086107;27;45447;-44
2023/09/03 01:48:37;;;;;;;;;3.00;3.00;;;;;22.28;70.27;101955.25;5062738;28;45413;-48
2023/09/03 01:51:11;;;;;;;;;3.25;3.25;;;;;22.27;70.38;101952.69;5086640;27;45629;-49
2023/09/03 01:53:44;;;;;;;;;2.00;2.00;;;;;22.25;70.14;101960.06;5086271;27;46123;-45
2023/09/03 01:56:12;;;;;;;;;3.50;3.50;;;;;22.22;70.34;101965.75;5080863;27;45740;-44
2023/09/03 01:58:40;;;;;;;;;2.75;2.75;;;;;22.20;70.62;101955.03;5067093;27;45366;-45
2023/09/03 02:01:08;;;;;;;;;4.50;2.50;;;;;22.19;70.44;101950.59;5071729;28;66203;-45
2023/09/03 02:03:33;;;;;;;;;4.75;3.00;;;;;22.18;70.52;101948.88;5081497;27;73729;-47
2023/09/03 02:05:59;;;;;;;;;2.75;1.25;;;;;22.17;70.65;101954.41;5093604;27;72945;-44
2023/09/03 02:08:24;;;;;;;;;2.75;2.75;;;;;22.15;70.97;101959.97;5098744;27;45360;-45
2023/09/03 02:10:50;;;;;;;;;3.00;3.00;;;;;22.13;71.00;101964.63;5087990;27;46186;-43
2023/09/03 02:13:16;;;;;;;;;6.00;4.25;;;;;22.09;71.17;101964.03;5088878;27;46988;-45
2023/09/03 02:15:41;;;;;;;;;4.00;4.00;;;;;22.07;70.94;101973.25;5094060;27;70767;-45
2023/09/03 02:18:06;;;;;;;;;2.00;2.00;;;;;22.05;71.23;101983.38;5082392;27;64129;-44
2023/09/03 02:20:32;;;;;;;;;2.25;2.25;;;;;22.03;71.21;101980.78;5088919;27;45373;-45
2023/09/03 02:22:57;;;;;;;;;3.25;3.25;;;;;22.01;71.43;101977.31;5084211;27;46099;-47
2023/09/03 02:25:22;;;;;;;;;3.25;2.25;;;;;21.98;71.68;101983.00;5090446;27;71962;-44
2023/09/03 02:27:48;;;;;;;;;3.00;3.00;;;;;21.95;71.53;101983.22;5088390;27;49325;-45
2023/09/03 02:30:13;;;;;;;;;6.00;4.00;;;;;21.93;71.35;101977.09;5094109;27;45360;-47
2023/09/03 02:32:39;;;;;;;;;2.50;2.50;;;;;21.88;71.59;101974.75;5074998;27;46983;-45
2023/09/03 02:35:04;;;;;;;;;3.50;3.00;;;;;21.85;71.73;101974.13;5087997;27;60030;-44
2023/09/03 02:37:30;;;;;;;;;2.25;2.25;;;;;21.83;71.69;101968.81;5090355;27;45332;-45
2023/09/03 02:39:55;;;;;;;;;3.25;3.25;;;;;21.80;71.23;101971.78;5092344;27;67491;-46
2023/09/03 02:42:21;;;;;;;;;2.00;2.00;;;;;21.78;71.66;101974.63;5085122;27;74264;-44
2023/09/03 02:44:46;;;;;;;;;2.00;2.00;;;;;21.78;72.21;101977.34;5085561;27;45441;-45
2023/09/03 02:47:11;;;;;;;;;4.00;4.00;;;;;21.77;71.71;101981.00;5082672;27;45287;-47
2023/09/03 02:49:36;;;;;;;;;5.00;3.75;;;;;21.76;71.46;101990.13;5098107;27;67689;-45
2023/09/03 02:52:02;;;;;;;;;3.00;3.00;;;;;21.76;71.75;101994.69;5094212;27;71222;-43
2023/09/03 02:54:28;;;;;;;;;1.75;1.75;;;;;21.75;71.74;101998.38;5087112;27;45360;-46
2023/09/03 02:56:53;;;;;;;;;2.50;2.00;;;;;21.75;72.60;101996.50;5084349;27;45455;-47
2023/09/03 02:59:18;;;;;;;;;1.25;1.25;;;;;21.72;72.52;102001.28;5093276;27;67616;-48
2023/09/03 03:01:44;;;;;;;;;2.75;2.75;;;;;21.69;72.78;102007.81;5089787;27;72099;-45
2023/09/03 03:04:09;;;;;;;;;3.00;2.25;;;;;21.65;72.42;102000.91;5097971;27;45366;-48
2023/09/03 03:06:34;;;;;;;;;2.00;2.00;;;;;21.62;72.76;102006.59;5095198;27;45754;-45
2023/09/03 03:09:00;;;;;;;;;2.00;2.00;;;;;21.62;72.60;102006.59;5079218;27;59155;-46
2023/09/03 03:11:25;;;;;;;;;2.25;2.25;;;;;21.60;72.53;102009.41;5088728;27;50901;-48
2023/09/03 03:13:52;;;;;;;;;3.50;3.25;;;;;21.55;72.77;102014.31;5096653;27;45494;-45
2023/09/03 03:16:17;;;;;;;;;2.75;2.75;;;;;21.50;72.25;102008.38;5099986;27;45319;-47
2023/09/03 03:18:45;;;;;;;;;3.25;3.25;;;;;21.47;72.68;102009.47;5094285;27;45492;-43
2023/09/03 03:21:16;;;;;;;;;3.25;3.25;;;;;21.46;73.70;102012.31;5080812;27;48049;-46
2023/09/03 03:23:46;;;;;;;;;3.00;3.00;;;;;21.44;73.12;102009.69;5074278;27;45411;-43
2023/09/03 03:26:11;;;;;;;;;3.00;3.00;;;;;21.41;73.89;101996.41;5081501;27;45451;-45
2023/09/03 03:28:36;;;;;;;;;3.00;2.00;;;;;21.41;73.89;102009.09;5078818;27;45496;-47
2023/09/03 03:31:15;;;;;;;;;3.25;2.00;;;;;21.41;73.61;102009.94;5084892;27;45726;-45
2023/09/03 03:33:41;;;;;;;;;2.00;2.00;;;;;21.41;73.38;102009.09;5098545;27;45531;-45
2023/09/03 03:36:09;;;;;;;;;2.50;2.50;;;;;21.39;73.91;102017.31;5099952;27;46427;-45
2023/09/03 03:38:34;;;;;;;;;3.50;3.00;;;;;21.38;73.88;102018.31;5089855;27;45454;-44
2023/09/03 03:41:13;;;;;;;;;2.50;2.50;;;;;21.37;73.49;102013.00;5093821;27;48020;-46
2023/09/03 03:43:42;;;;;;;;;3.00;3.00;;;;;21.36;74.02;102025.66;5095883;27;45459;-47
2023/09/03 03:46:08;;;;;;;;;5.00;3.00;;;;;21.37;73.51;102024.69;5097990;27;45468;-45
2023/09/03 03:48:34;;;;;;;;;4.00;4.00;;;;;21.36;74.04;102027.53;5098860;27;45654;-48
2023/09/03 03:50:59;;;;;;;;;1.75;1.75;;;;;21.32;74.61;102027.75;5085234;27;46012;-45
2023/09/03 03:53:25;;;;;;;;;2.25;2.25;;;;;21.30;74.00;102027.00;5068601;28;45463;-44
2023/09/03 03:56:02;;;;;;;;;3.50;3.50;;;;;21.29;74.15;102038.81;5096687;27;45441;-46
2023/09/03 03:58:31;;;;;;;;;3.25;3.25;;;;;21.27;74.51;102040.75;5097838;27;45383;-44
2023/09/03 04:00:57;;;;;;;;;2.00;2.00;;;;;21.26;74.70;102036.34;5082644;27;46022;-47
2023/09/03 04:03:23;;;;;;;;;3.00;3.00;;;;;21.25;74.86;102036.44;5097323;27;45418;-45
2023/09/03 04:05:58;;;;;;;;;1.00;1.00;;;;;21.24;74.86;102041.00;5084338;27;45432;-47
2023/09/03 04:08:28;;;;;;;;;3.00;3.00;;;;;21.24;74.88;102043.72;5082818;27;45463;-46
2023/09/03 04:11:05;;;;;;;;;2.50;2.50;;;;;21.24;74.39;102056.38;5090989;27;45381;-43
2023/09/03 04:13:30;;;;;;;;;4.75;4.75;;;;;21.19;74.87;102048.59;5091280;27;45526;-44
2023/09/03 04:15:56;;;;;;;;;5.75;5.00;;;;;21.18;74.63;102057.69;5087771;27;45748;-46
2023/09/03 04:18:23;;;;;;;;;3.75;3.75;;;;;21.15;74.99;102052.53;5086039;27;45399;-44
2023/09/03 04:20:52;;;;;;;;;3.00;3.00;;;;;21.14;74.84;102061.59;5084240;27;46211;-44
2023/09/03 04:23:17;;;;;;;;;4.67;4.00;;;;;21.13;75.15;102060.75;5086407;27;45332;-45
2023/09/03 04:25:42;;;;;;;;;2.25;2.25;;;;;21.13;75.37;102066.16;5083935;27;45304;-44
2023/09/03 04:28:08;;;;;;;;;6.00;6.00;;;;;21.14;75.55;102064.31;5085079;27;67225;-47
2023/09/03 04:30:36;;;;;;;;;4.00;4.00;;;;;21.14;75.41;102065.16;5095338;27;74988;-45
2023/09/03 04:33:02;;;;;;;;;3.00;2.50;;;;;21.15;74.95;102063.34;5067694;27;45939;-47
2023/09/03 04:35:28;;;;;;;;;3.75;3.00;;;;;21.15;74.90;102061.50;5079439;27;45813;-44
2023/09/03 04:37:53;;;;;;;;;2.00;2.00;;;;;21.15;75.53;102066.03;5098432;27;45480;-45
2023/09/03 04:40:19;;;;;;;;;2.25;2.00;;;;;21.13;75.33;102066.16;5078456;27;46991;-47
2023/09/03 04:42:44;;;;;;;;;4.75;4.00;;;;;21.12;74.99;102067.13;5067237;27;45460;-44
2023/09/03 04:45:10;;;;;;;;;3.00;3.00;;;;;21.10;75.80;102079.06;5082885;27;66831;-44
2023/09/03 04:47:35;;;;;;;;;4.00;4.00;;;;;21.09;75.46;102077.31;5089551;27;45421;-44
2023/09/03 04:50:00;;;;;;;;;3.25;3.25;;;;;21.06;75.79;102081.13;5089647;27;45353;-44
2023/09/03 04:52:26;;;;;;;;;3.00;3.00;;;;;21.05;75.87;102075.81;5077141;28;62300;-44
2023/09/03 04:54:52;;;;;;;;;3.00;3.00;;;;;21.03;76.26;102077.78;5091089;27;68996;-46
2023/09/03 04:57:17;;;;;;;;;2.50;2.50;;;;;21.00;76.28;102081.56;5089800;27;45657;-44
2023/09/03 04:59:42;;;;;;;;;2.75;2.75;;;;;20.99;76.39;102077.16;5084456;27;73680;-46
2023/09/03 05:02:08;;;;;;;;;5.50;4.50;;;;;20.98;76.27;102080.84;5098859;27;61851;-44
2023/09/03 05:04:33;;;;;;;;;4.25;3.00;;;;;20.97;76.20;102084.50;5095658;27;65693;-46
2023/09/03 05:06:58;;;;;;;;;3.50;3.50;;;;;20.94;75.86;102092.84;5101037;27;53941;-45
2023/09/03 05:09:24;;;;;;;;;4.25;4.25;;;;;20.93;76.49;102086.56;5097470;27;59020;-45
2023/09/03 05:11:49;;;;;;;;;2.50;2.50;;;;;20.92;76.10;102090.25;5083148;27;63333;-44
2023/09/03 05:14:15;;;;;;;;;5.00;4.50;;;;;20.90;76.46;102086.81;5098481;27;45769;-45
2023/09/03 05:16:40;;;;;;;;;4.25;4.00;;;;;20.89;76.15;102089.63;5090443;27;67001;-44
2023/09/03 05:19:06;;;;;;;;;5.00;4.00;;;;;20.88;76.69;102094.16;5096240;27;74940;-44
2023/09/03 05:21:32;;;;;;;;;4.50;4.50;;;;;20.90;76.94;102094.03;5091080;27;45446;-45
2023/09/03 05:23:57;;;;;;;;;6.25;5.00;;;;;20.90;77.14;102094.91;5098679;27;45706;-45
2023/09/03 05:26:23;;;;;;;;;5.75;4.25;;;;;20.91;76.57;102093.06;5090190;27;45401;-45
2023/09/03 05:28:48;;;;;;;;;4.00;3.00;;;;;20.91;76.43;102096.66;5096935;27;46089;-44
2023/09/03 05:31:14;;;;;;;;;5.00;5.00;;;;;20.92;76.95;102090.25;5100835;27;45535;-44
2023/09/03 05:33:39;;;;;;;;;4.00;4.00;;;;;20.93;77.35;102093.81;5096162;27;45407;-44
2023/09/03 05:36:05;;;;;;;;;4.25;4.25;;;;;20.95;76.94;102099.97;5054862;28;45352;-44
2023/09/03 05:38:31;;;;;;;;;4.00;4.00;;;;;20.96;77.53;102104.41;5088324;27;46301;-44
2023/09/03 05:40:58;;;;;;;;;3.50;3.50;;;;;20.96;76.66;102102.59;5101536;27;45485;-44
2023/09/03 05:43:24;;;;;;;;;5.50;5.00;;;;;20.99;77.08;102109.59;5097167;27;45560;-45
2023/09/03 05:45:49;;;;;;;;;4.75;3.25;;;;;21.03;76.43;102115.63;5091533;27;45446;-44
2023/09/03 05:48:14;;;;;;;;;4.75;4.75;;;;;21.06;76.53;102123.53;5095315;27;45964;-46
2023/09/03 05:50:40;;;;;;;;;5.00;5.00;;;;;21.09;76.26;102121.47;5091207;27;45510;-44
2023/09/03 05:53:05;;;;;;;;;4.50;4.00;;;;;21.15;76.38;102123.69;5084156;27;45389;-44
2023/09/03 05:55:31;;;;;;;;;6.00;3.00;;;;;21.20;76.58;102123.38;5100039;27;45541;-48
2023/09/03 05:57:56;;;;;;;;;5.50;5.50;;;;;21.26;75.92;102128.34;5087572;27;46095;-48
2023/09/03 06:00:21;;;;;;;;;5.50;4.00;;;;;21.31;75.86;102117.16;5080147;27;45500;-47
2023/09/03 06:02:48;;;;;;;;;2.00;2.00;;;;;21.36;76.07;102130.34;5079797;27;67674;-46
2023/09/03 06:05:14;;;;;;;;;4.75;4.75;;;;;21.43;75.66;102135.19;5079864;28;45462;-48
2023/09/03 06:07:39;;;;;;;;;6.25;4.25;;;;;21.51;75.49;102134.59;5098061;27;46088;-46
2023/09/03 06:10:05;;;;;;;;;4.50;4.00;;;;;21.59;75.10;102132.22;5080793;27;45486;-45
2023/09/03 06:12:31;;;;;;;;;5.00;5.00;;;;;21.66;74.81;102126.34;5081400;27;45465;-46
2023/09/03 06:14:56;;;;;;;;;4.50;4.50;;;;;21.70;74.67;102134.09;5082136;27;45449;-44
2023/09/03 06:17:22;;;;;;;;;9.00;6.00;;;;;21.74;74.56;102143.69;5083213;27;46046;-44
2023/09/03 06:19:48;;;;;;;;;5.00;5.00;;;;;21.83;74.42;102154.81;5081917;27;45486;-45
2023/09/03 06:22:14;;;;;;;;;5.50;4.00;;;;;21.94;73.96;102163.84;5082633;27;45453;-45
2023/09/03 06:24:40;;;;;;;;;5.25;4.25;;;;;22.08;73.25;102161.91;5081752;27;45660;-47
2023/09/03 06:27:05;;;;;;;;;6.00;6.00;;;;;22.16;73.17;102162.16;5082636;27;46253;-49
2023/09/03 06:29:30;;;;;;;;;7.00;6.75;;;;;22.29;72.70;102170.19;5062639;28;58426;-45
2023/09/03 06:31:56;;;;;;;;;4.00;4.00;;;;;22.63;72.81;102164.84;5082125;27;64962;-45
2023/09/03 06:34:22;;;;;;;;;3.75;3.75;;;;;23.37;71.36;102166.97;5080135;27;45594;-45
2023/09/03 06:36:48;;;;;;;;;5.25;4.75;;;;;23.96;68.88;102181.09;5080722;27;47039;-44
2023/09/03 06:39:13;;;;;;;;;6.00;4.25;;;;;24.39;68.00;102182.84;5079702;27;68001;-45
2023/09/03 06:41:39;;;;;;;;;5.50;5.00;;;;;24.82;66.14;102180.91;5080665;27;45648;-46
2023/09/03 06:44:04;;;;;;;;;4.00;4.00;;;;;25.33;65.11;102183.63;5080511;27;45608;-45
2023/09/03 06:46:30;;;;;;;;;4.75;4.25;;;;;26.09;63.63;102183.84;5062096;27;45790;-46
2023/09/03 06:48:55;;;;;;;;;4.50;4.50;;;;;27.11;61.03;102175.03;5079507;27;64314;-48
2023/09/03 06:51:20;;;;;;;;;3.50;3.50;;;;;28.30;57.72;102184.88;5080094;27;45404;-45
2023/09/03 06:53:46;;;;;;;;;4.25;4.25;;;;;29.40;56.54;102168.63;5082951;27;45401;-45
2023/09/03 06:56:11;;;;;;;;;4.25;4.00;;;;;30.03;53.27;102166.28;5085714;27;74207;-44
2023/09/03 06:58:36;;;;;;;;;4.00;4.00;;;;;31.04;52.14;102171.28;5082323;27;71442;-49
2023/09/03 07:01:04;;;;;;;;;4.25;4.25;;;;;32.20;48.83;102177.69;5067329;27;45395;-47
2023/09/03 07:03:29;;;;;;;;;4.50;4.50;;;;;33.48;46.29;102175.56;5082453;27;45365;-46
2023/09/03 07:05:55;;;;;;;;;4.00;4.00;;;;;34.80;45.06;102180.63;5069107;27;45906;-49
2023/09/03 07:08:20;;;;;;;;;3.75;3.25;;;;;36.18;41.90;102186.84;5084913;27;45407;-45
2023/09/03 07:10:46;;;;;;;;;5.00;5.00;;;;;37.49;40.31;102186.81;5085274;27;45410;-46
2023/09/03 07:13:11;;;;;;;;;3.25;3.25;;;;;38.38;37.83;102186.69;5069044;27;45694;-46
2023/09/03 07:15:37;;;;;;;;;4.00;3.75;;;;;38.20;35.94;102187.50;5078673;27;71431;-47
2023/09/03 07:18:03;;;;;;;;;5.00;4.00;;;;;36.46;35.13;102191.31;5083165;27;45893;-46
2023/09/03 07:20:28;;;;;;;;;3.50;2.75;;;;;35.51;36.46;102187.66;5082846;27;45661;-49
2023/09/03 07:22:54;;;;;;;;;3.00;3.00;;;;;36.30;37.89;102195.34;5083890;27;67653;-46
2023/09/03 07:25:19;;;;;;;;;2.75;2.75;;;;;37.67;36.37;102191.59;5084987;27;45968;-45
2023/09/03 07:27:44;;;;;;;;;5.00;3.75;;;;;39.07;34.57;102207.91;5086034;27;45398;-45
2023/09/03 07:30:11;;;;;;;;;1.00;1.00;;;;;39.90;33.30;102202.63;5082937;27;45960;-45
2023/09/03 07:32:37;;;;;;;;;2.50;1.75;;;;;40.77;30.49;102214.94;5082427;27;45631;-44
2023/09/03 07:35:04;;;;;;;;;4.00;2.00;;;;;41.66;31.24;102216.41;5090413;27;46836;-46
2023/09/03 07:37:30;;;;;;;;;2.00;2.00;;;;;42.20;29.35;102204.69;5085427;27;45578;-46
2023/09/03 07:39:55;;;;;;;;;2.75;2.50;;;;;42.07;28.12;102191.09;5082732;27;45766;-47
2023/09/03 07:42:20;;;;;;;;;6.50;2.00;;;;;40.58;28.79;102183.63;5062748;28;63365;-46
2023/09/03 07:44:46;;;;;;;;;1.25;1.25;;;;;38.43;30.78;102183.25;5080453;27;66835;-46
2023/09/03 07:47:11;;;;;;;;;2.50;2.50;;;;;36.42;32.67;102180.66;5080970;27;45809;-47
2023/09/03 07:49:36;;;;;;;;;1.75;1.75;;;;;34.77;35.08;102165.31;5098869;27;45524;-46
2023/09/03 07:52:02;;;;;;;;;2.00;2.00;;;;;33.41;36.46;102171.88;5098649;27;61315;-49
2023/09/03 07:54:27;;;;;;;;;2.50;2.50;;;;;32.22;38.10;102181.13;5084548;27;45765;-46
2023/09/03 07:56:54;;;;;;;;;4.75;3.50;;;;;31.24;39.72;102177.19;5096557;27;69512;-45
2023/09/03 07:59:20;;;;;;;;;3.00;2.00;;;;;30.45;41.08;102170.63;5097562;27;45712;-49
2023/09/03 08:01:46;;;;;;;;;2.00;2.00;;;;;29.80;42.14;102168.81;5097287;27;45558;-46
2023/09/03 08:04:11;;;;;;;;;1.75;1.75;;;;;29.24;43.24;102171.28;5083389;27;46225;-49
2023/09/03 08:06:37;;;;;;;;;2.50;2.50;;;;;28.75;43.96;102174.72;5068736;27;45486;-47
2023/09/03 08:09:03;;;;;;;;;2.75;2.00;;;;;28.30;44.88;102174.78;5093754;27;45531;-49
2023/09/03 08:11:28;;;;;;;;;1.00;1.00;;;;;27.97;45.56;102171.78;5085625;27;45253;-46
2023/09/03 08:13:57;;;;;;;;;3.00;3.00;;;;;27.67;46.46;102173.94;5086638;27;67406;-45
2023/09/03 08:16:23;;;;;;;;;1.00;1.00;;;;;27.46;46.74;102182.44;5093486;27;45363;-45
2023/09/03 08:18:48;;;;;;;;;0.00;0.00;;;;;27.26;47.52;102180.81;5079226;27;45699;-46
2023/09/03 08:21:13;;;;;;;;;3.50;3.50;;;;;27.11;47.87;102178.63;5087361;27;45615;-46
2023/09/03 08:23:40;;;;;;;;;3.00;3.00;;;;;26.98;48.71;102172.66;5084771;27;46907;-45
2023/09/03 08:26:06;;;;;;;;;2.00;2.00;;;;;26.79;48.83;102171.75;5093179;27;45587;-44
2023/09/03 08:28:31;;;;;;;;;4.75;3.00;;;;;26.59;49.52;102176.38;5097713;27;45355;-46
2023/09/03 08:30:57;;;;;;;;;4.00;4.00;;;;;26.41;50.20;102166.28;5096359;27;45627;-46
2023/09/03 08:33:22;;;;;;;;;3.75;3.00;;;;;26.28;50.38;102165.72;5084312;27;46200;-45
2023/09/03 08:35:47;;;;;;;;;2.00;2.00;;;;;26.23;50.70;102163.44;5084363;27;70323;-46
2023/09/03 08:38:13;;;;;;;;;3.00;3.00;;;;;26.26;50.64;102165.03;5095361;27;46039;-45
2023/09/03 08:40:38;;;;;;;;;1.50;1.50;;;;;26.26;51.17;102167.75;5092777;27;45519;-48
2023/09/03 08:43:08;;;;;;;;;2.50;2.50;;;;;26.29;50.72;102172.03;5083977;27;45863;-46
2023/09/03 08:45:39;;;;;;;;;5.25;5.25;;;;;26.34;50.76;102176.03;5079442;27;45524;-45
2023/09/03 08:48:04;;;;;;;;;5.50;4.75;;;;;26.40;51.22;102177.34;5080653;27;45402;-47
2023/09/03 08:50:31;;;;;;;;;3.75;3.75;;;;;26.45;51.06;102176.88;5096072;27;45350;-48
2023/09/03 08:52:58;;;;;;;;;3.50;3.25;;;;;27.83;51.48;102184.13;5070795;28;46133;-49
2023/09/03 08:55:24;;;;;;;;;3.00;3.00;;;;;31.21;47.73;102174.84;5059566;27;45500;-47
2023/09/03 08:57:54;;;;;;;;;2.25;2.25;;;;;34.62;42.58;102184.75;5097916;27;63651;-50
2023/09/03 09:00:19;;;;;;;;;5.00;3.00;;;;;37.17;36.56;102179.31;5091600;27;45354;-45
2023/09/03 09:02:45;;;;;;;;;3.75;2.00;;;;;39.21;32.61;102176.09;5067354;28;52382;-45
2023/09/03 09:05:11;;;;;;;;;3.00;2.00;;;;;41.02;32.42;102175.63;5060164;27;73669;-46
2023/09/03 09:07:36;;;;;;;;;2.25;2.25;;;;;42.69;27.09;102170.47;5090358;27;45757;-48
2023/09/03 09:10:06;;;;;;;;;1.25;1.25;;;;;43.86;28.05;102173.81;5083380;27;62371;-45
2023/09/03 09:12:34;;;;;;;;;2.00;2.00;;;;;44.79;26.31;102175.19;5087771;27;45347;-50
2023/09/03 09:15:01;;;;;;;;;0.80;0.80;;;;;45.38;24.64;102187.91;5090188;27;45402;-49
2023/09/03 09:17:30;;;;;;;;;2.00;2.00;;;;;45.97;23.95;102190.47;5087511;27;45801;-47
2023/09/03 09:20:01;;;;;;;;;1.75;1.25;;;;;46.71;24.07;102186.00;5060173;28;45483;-48
2023/09/03 09:22:26;;;;;;;;;2.00;2.00;;;;;47.35;22.46;102186.13;5071794;27;45844;-47
2023/09/03 09:24:52;;;;;;;;;1.00;1.00;;;;;47.84;22.77;102194.78;5071734;28;71115;-45
2023/09/03 09:27:19;;;;;;;;;0.00;0.00;;;;;48.11;22.99;102182.06;5089787;27;45544;-50
2023/09/03 09:29:46;;;;;;;;;1.25;1.25;;;;;48.22;19.63;102188.44;5088836;27;45410;-48
2023/09/03 09:32:18;;;;;;;;;3.50;2.00;;;;;48.51;20.87;102192.00;5087670;27;45705;-49
2023/09/03 09:34:43;;;;;;;;;1.00;0.20;;;;;48.64;21.47;102187.63;5090696;27;45425;-49
2023/09/03 09:37:09;;;;;;;;;1.00;1.00;;;;;48.49;20.55;102194.28;5071996;27;45429;-50
2023/09/03 09:40:01;;;;;;;;;1.25;1.00;;;;;48.48;19.51;102186.16;5085678;27;45392;-48
2023/09/03 09:42:26;;;;;;;;;0.80;0.80;;;;;48.54;19.29;102198.22;5085613;27;46317;-47
2023/09/03 09:44:51;;;;;;;;;2.00;0.75;;;;;48.52;19.58;102196.50;5090518;27;62780;-46
2023/09/03 09:47:18;;;;;;;;;1.25;1.25;;;;;48.59;18.92;102204.63;5097532;27;45373;-46
2023/09/03 09:49:45;;;;;;;;;2.00;1.25;;;;;48.69;20.72;102198.00;5090043;27;45446;-46
2023/09/03 09:52:12;;;;;;;;;2.00;2.00;;;;;48.77;18.95;102202.97;5097612;27;46904;-49
2023/09/03 09:54:44;;;;;;;;;1.80;1.20;;;;;48.80;20.20;102199.53;5089417;27;45422;-47
2023/09/03 09:57:19;;;;;;;;;4.00;2.50;;;;;48.81;18.67;102194.72;5089612;27;45410;-46
2023/09/03 09:59:55;;;;;;;;;3.00;2.25;;;;;48.95;18.71;102190.03;5080509;27;45572;-50
2023/09/03 10:02:21;;;;;;;;;1.00;1.00;;;;;49.18;18.02;102193.91;5098181;27;45627;-50
2023/09/03 10:04:48;;;;;;;;;1.00;1.00;;;;;49.39;18.85;102182.28;5085376;27;45662;-48
2023/09/03 10:07:14;;;;;;;;;2.00;2.00;;;;;49.55;18.51;102185.66;5096111;27;45530;-49
2023/09/03 10:09:40;;;;;;;;;2.00;2.00;;;;;49.62;18.24;102186.06;5095861;27;45458;-51
2023/09/03 10:12:07;;;;;;;;;2.00;2.00;;;;;49.53;17.13;102187.94;5083512;27;46337;-48
2023/09/03 10:14:33;;;;;;;;;1.75;1.75;;;;;49.33;18.13;102177.88;5091452;27;45454;-46
2023/09/03 10:17:07;;;;;;;;;2.00;2.00;;;;;49.08;18.29;102176.28;5084190;27;45285;-48
2023/09/03 10:19:47;;;;;;;;;1.75;1.75;;;;;48.94;17.83;102174.22;5082445;27;45571;-49
2023/09/03 10:22:16;;;;;;;;;2.00;2.00;;;;;49.06;18.65;102184.22;5064679;27;45566;-49
2023/09/03 10:24:42;;;;;;;;;3.40;3.40;;;;;48.97;17.52;102173.63;5089155;27;45608;-49
2023/09/03 10:27:12;;;;;;;;;2.00;2.00;;;;;48.93;17.49;102172.53;5052647;27;46953;-47
2023/09/03 10:29:40;;;;;;;;;4.00;2.00;;;;;48.74;17.78;102166.91;5056994;27;45522;-50
2023/09/03 10:32:06;;;;;;;;;2.00;2.00;;;;;48.50;19.50;102181.88;5093795;27;45827;-47
2023/09/03 10:34:33;;;;;;;;;2.50;2.00;;;;;48.27;18.60;102179.91;5071838;27;45604;-49
2023/09/03 10:37:03;;;;;;;;;2.75;2.75;;;;;48.03;18.31;102178.78;5096260;27;45457;-46
2023/09/03 10:39:28;;;;;;;;;4.00;2.50;;;;;47.79;19.18;102180.72;5092791;27;45247;-47
2023/09/03 10:42:16;;;;;;;;;5.00;3.25;;;;;47.61;18.59;102185.94;5088138;27;69267;-51
2023/09/03 10:44:42;;;;;;;;;5.25;5.25;;;;;47.62;19.21;102184.81;5092963;27;45361;-48
2023/09/03 10:47:10;;;;;;;;;2.50;2.50;;;;;47.46;19.24;102192.56;5079732;27;45430;-47
2023/09/03 10:49:43;;;;;;;;;2.25;2.25;;;;;47.25;19.27;102180.63;5089347;27;45583;-45
2023/09/03 10:52:34;;;;;;;;;4.75;3.50;;;;;47.35;18.92;102174.03;5078215;27;46180;-48
2023/09/03 10:55:16;;;;;;;;;5.25;4.00;;;;;47.39;18.73;102177.94;5097755;27;45624;-46
2023/09/03 10:57:46;;;;;;;;;3.50;3.00;;;;;46.99;19.54;102168.66;5092814;27;45284;-46
2023/09/03 11:00:15;;;;;;;;;2.75;2.75;;;;;46.58;19.11;102182.97;5061244;27;45486;-47
2023/09/03 11:02:41;;;;;;;;;5.00;4.00;;;;;46.03;19.55;102197.75;5091000;27;46847;-49
2023/09/03 11:05:14;;;;;;;;;3.75;3.00;;;;;45.45;20.07;102184.84;5090492;27;45501;-50
2023/09/03 11:07:43;;;;;;;;;4.50;4.50;;;;;45.36;20.94;102189.31;5090266;27;45585;-48
2023/09/03 11:10:35;;;;;;;;;3.75;3.75;;;;;45.32;20.02;102183.44;5091428;27;45493;-48
2023/09/03 11:13:00;;;;;;;;;4.25;3.00;;;;;45.22;20.33;102169.41;5084346;27;45549;-45
2023/09/03 11:15:26;;;;;;;;;4.50;4.50;;;;;45.00;20.24;102164.03;5092434;27;45409;-46
2023/09/03 11:17:53;;;;;;;;;5.00;4.00;;;;;44.80;20.74;102162.84;5091693;27;48349;-50
2023/09/03 11:20:26;;;;;;;;;3.00;3.00;;;;;44.50;21.11;102164.41;5091753;27;45460;-49
2023/09/03 11:22:52;;;;;;;;;8.25;5.00;;;;;44.10;21.63;102165.88;5091474;27;47098;-49
2023/09/03 11:25:17;;;;;;;;;2.75;2.75;;;;;43.68;21.98;102166.69;5075689;27;45598;-47